Time;durP1;ratioP1;P1;durP2;ratioP2;P2;SDS_P1;SDS_P2;PMS_P1;PMS_P2;Temp;Humidity;BMP_temperature;BMP_pressure;BME280_temperature;BME280_humidity;BME280_pressure;Samples;Min_cycle;Max_cycle;Signal;HPM_P1;HPM_P2
2023/08/06 00:01:28;;;;;;;0.30;0.30;;;;;17.80;95654.00;;;;5014793;28;20718;-63
2023/08/06 00:04:17;;;;;;;0.57;0.40;;;;;17.80;95662.00;;;;5014202;23;20718;-90
2023/08/06 00:07:06;;;;;;;3.73;0.50;;;;;17.90;95658.00;;;;5027750;28;20678;-89
2023/08/06 00:09:56;;;;;;;0.53;0.40;;;;;17.80;95661.00;;;;5027195;28;20229;-89
2023/08/06 00:12:46;;;;;;;1.40;0.30;;;;;17.90;95665.00;;;;5029020;28;20316;-89
2023/08/06 00:15:35;;;;;;;4.70;0.50;;;;;18.00;95658.00;;;;5023834;28;20666;-90
2023/08/06 00:18:24;;;;;;;2.23;0.30;;;;;17.80;95656.00;;;;5023740;28;20232;-90
2023/08/06 00:21:14;;;;;;;2.30;0.40;;;;;17.50;95663.00;;;;5028086;28;20698;-90
2023/08/06 00:24:03;;;;;;;10.13;0.57;;;;;17.70;95664.00;;;;5028991;28;20217;-90
2023/08/06 00:26:52;;;;;;;0.40;0.23;;;;;17.90;95666.00;;;;5029578;28;20697;-90
2023/08/06 00:29:43;;;;;;;0.30;0.20;;;;;17.90;95670.00;;;;5027030;28;20233;-89
2023/08/06 00:32:32;;;;;;;1.70;0.40;;;;;17.90;95663.00;;;;5027335;28;20201;-89
2023/08/06 00:35:21;;;;;;;0.60;0.30;;;;;17.80;95662.00;;;;5042767;28;20235;-89
2023/08/06 00:38:10;;;;;;;1.43;0.40;;;;;17.80;95654.00;;;;5038822;28;20279;-89
2023/08/06 00:41:00;;;;;;;0.57;0.40;;;;;17.70;95648.00;;;;5049666;28;20704;-89
2023/08/06 00:43:49;;;;;;;0.23;0.20;;;;;17.60;95664.00;;;;5050688;28;20196;-89
2023/08/06 00:46:40;;;;;;;0.90;0.40;;;;;17.60;95671.00;;;;5044503;28;20209;-89
2023/08/06 00:49:29;;;;;;;2.10;0.30;;;;;17.40;95666.00;;;;5046513;28;20803;-88
2023/08/06 00:52:19;;;;;;;0.60;0.40;;;;;17.10;95670.00;;;;5044705;28;20205;-88
2023/08/06 00:55:09;;;;;;;0.30;0.30;;;;;17.20;95672.00;;;;5052486;28;20204;-90
2023/08/06 00:57:58;;;;;;;0.83;0.23;;;;;17.50;95670.00;;;;5043739;28;20309;-88
2023/08/06 01:00:48;;;;;;;1.07;0.37;;;;;17.60;95665.00;;;;5051496;28;20470;-90
2023/08/06 01:03:39;;;;;;;0.60;0.60;;;;;17.50;95664.00;;;;5058691;28;20197;-88
2023/08/06 01:06:44;;;;;;;0.20;0.20;;;;;17.40;95661.00;;;;5076598;28;20196;-91
2023/08/06 01:09:40;;;;;;;0.50;0.20;;;;;17.00;95654.00;;;;5077105;28;20224;-91
2023/08/06 01:12:35;;;;;;;0.70;0.43;;;;;17.20;95650.00;;;;5070055;28;20181;-92
2023/08/06 01:15:28;;;;;;;0.70;0.30;;;;;17.20;95646.00;;;;5071107;28;20211;-90
2023/08/06 01:18:18;;;;;;;0.47;0.40;;;;;17.20;95650.00;;;;5069245;28;20251;-93
2023/08/06 01:21:08;;;;;;;0.67;0.40;;;;;17.40;95647.00;;;;5071265;28;20224;-91
2023/08/06 01:23:58;;;;;;;0.70;0.30;;;;;17.40;95641.00;;;;5072387;28;20258;-90
2023/08/06 01:26:52;;;;;;;0.30;0.30;;;;;17.70;95639.00;;;;5071526;28;20279;-91
2023/08/06 01:29:45;;;;;;;0.23;0.23;;;;;17.60;95630.00;;;;5073397;28;20223;-92
2023/08/06 01:32:36;;;;;;;0.20;0.20;;;;;17.40;95624.00;;;;5057789;28;20197;-91
2023/08/06 01:35:25;;;;;;;0.27;0.27;;;;;17.60;95621.00;;;;5051265;28;20239;-90
2023/08/06 01:38:16;;;;;;;2.13;0.30;;;;;17.60;95621.00;;;;5043047;28;20205;-90
2023/08/06 01:41:05;;;;;;;0.30;0.30;;;;;17.60;95622.00;;;;5049905;28;20244;-89
2023/08/06 01:43:54;;;;;;;0.40;0.40;;;;;17.60;95620.00;;;;5050291;28;20958;-90
2023/08/06 01:46:43;;;;;;;0.20;0.20;;;;;17.60;95617.00;;;;5050474;28;20358;-90
2023/08/06 01:49:33;;;;;;;0.50;0.37;;;;;17.60;95615.00;;;;5048403;28;20827;-89
2023/08/06 01:52:22;;;;;;;0.40;0.33;;;;;17.60;95616.00;;;;5037578;28;20197;-91
2023/08/06 01:55:13;;;;;;;2.80;0.30;;;;;17.60;95618.00;;;;5050355;28;20201;-91
2023/08/06 01:58:02;;;;;;;0.97;0.20;;;;;17.60;95612.00;;;;5050471;28;20645;-90
2023/08/06 02:00:52;;;;;;;0.63;0.47;;;;;17.60;95611.00;;;;5043727;28;20220;-91
2023/08/06 02:03:41;;;;;;;0.83;0.57;;;;;17.60;95611.00;;;;5046020;28;20212;-91
2023/08/06 02:06:30;;;;;;;2.23;0.40;;;;;17.60;95603.00;;;;5050230;28;20197;-90
2023/08/06 02:09:19;;;;;;;0.20;0.10;;;;;17.60;95605.00;;;;5043892;28;20730;-90
2023/08/06 02:12:10;;;;;;;0.40;0.33;;;;;17.60;95616.00;;;;5039137;28;20285;-89
2023/08/06 02:14:59;;;;;;;1.63;0.40;;;;;17.50;95611.00;;;;5048186;28;20300;-89
2023/08/06 02:17:48;;;;;;;0.57;0.30;;;;;17.60;95608.00;;;;5047705;28;20220;-89
2023/08/06 02:20:38;;;;;;;0.67;0.33;;;;;17.60;95605.00;;;;5049826;28;20212;-89
2023/08/06 02:23:27;;;;;;;0.20;0.20;;;;;17.50;95611.00;;;;5050053;28;20602;-89
2023/08/06 02:26:16;;;;;;;1.57;0.40;;;;;17.50;95592.00;;;;5048845;28;20204;-90
2023/08/06 02:29:07;;;;;;;3.27;0.30;;;;;17.30;95590.00;;;;5042908;28;20729;-90
2023/08/06 02:31:56;;;;;;;0.43;0.27;;;;;17.50;95588.00;;;;5049266;28;20374;-90
2023/08/06 02:34:46;;;;;;;0.60;0.30;;;;;17.40;95586.00;;;;5046346;28;20681;-90
2023/08/06 02:37:35;;;;;;;0.93;0.40;;;;;17.30;95584.00;;;;5047835;28;20215;-89
2023/08/06 02:40:24;;;;;;;3.03;0.70;;;;;17.50;95587.00;;;;5045037;28;20224;-88
2023/08/06 02:43:14;;;;;;;3.50;0.40;;;;;17.50;95579.00;;;;5041329;28;20763;-90
2023/08/06 02:46:04;;;;;;;3.20;0.47;;;;;17.50;95577.00;;;;5047552;28;20269;-89
2023/08/06 02:48:54;;;;;;;1.07;0.50;;;;;17.50;95577.00;;;;5047877;28;20208;-88
2023/08/06 02:51:43;;;;;;;0.30;0.23;;;;;17.30;95582.00;;;;5048191;28;20618;-89
2023/08/06 02:54:32;;;;;;;0.40;0.40;;;;;17.40;95585.00;;;;5044412;28;20228;-89
2023/08/06 02:57:21;;;;;;;3.40;0.43;;;;;17.20;95587.00;;;;5048945;28;20204;-90
2023/08/06 03:00:11;;;;;;;0.30;0.30;;;;;17.30;95589.00;;;;5048179;28;20220;-89
2023/08/06 03:03:02;;;;;;;0.83;0.40;;;;;17.50;95592.00;;;;5049227;28;20341;-89
2023/08/06 03:05:53;;;;;;;1.80;0.40;;;;;17.30;95595.00;;;;5048769;28;20204;-89
2023/08/06 03:08:43;;;;;;;0.20;0.20;;;;;17.40;95587.00;;;;5045992;28;20232;-89
2023/08/06 03:11:32;;;;;;;0.20;0.20;;;;;17.50;95584.00;;;;5045733;28;20229;-90
2023/08/06 03:14:21;;;;;;;0.23;0.23;;;;;17.40;95591.00;;;;5049983;28;20270;-90
2023/08/06 03:17:10;;;;;;;0.57;0.30;;;;;17.20;95591.00;;;;5048991;28;20200;-90
2023/08/06 03:20:01;;;;;;;0.40;0.37;;;;;17.10;95591.00;;;;5046593;28;20672;-91
2023/08/06 03:22:50;;;;;;;0.50;0.50;;;;;16.90;95589.00;;;;5046609;28;20200;-90
2023/08/06 03:25:39;;;;;;;0.33;0.30;;;;;17.10;95598.00;;;;5048949;28;20213;-90
2023/08/06 03:28:29;;;;;;;0.60;0.23;;;;;17.20;95590.00;;;;5043629;28;20661;-90
2023/08/06 03:31:18;;;;;;;0.30;0.30;;;;;17.30;95593.00;;;;5040205;28;20726;-90
2023/08/06 03:34:07;;;;;;;0.43;0.30;;;;;17.30;95584.00;;;;5046974;28;20204;-89
2023/08/06 03:36:58;;;;;;;0.70;0.60;;;;;17.20;95582.00;;;;5047314;28;20260;-90
2023/08/06 03:39:47;;;;;;;0.43;0.33;;;;;16.80;95572.00;;;;5049117;28;20685;-90
2023/08/06 03:42:36;;;;;;;0.43;0.30;;;;;17.10;95581.00;;;;5043090;28;20851;-90
2023/08/06 03:45:25;;;;;;;0.40;0.40;;;;;17.20;95578.00;;;;5045607;28;20197;-90
2023/08/06 03:48:14;;;;;;;1.07;0.40;;;;;17.10;95574.00;;;;5049552;28;20204;-89
2023/08/06 03:51:03;;;;;;;0.40;0.40;;;;;16.90;95572.00;;;;5046556;28;20282;-89
2023/08/06 03:53:54;;;;;;;0.47;0.40;;;;;16.70;95578.00;;;;5047822;28;20208;-90
2023/08/06 03:56:43;;;;;;;0.37;0.37;;;;;16.90;95566.00;;;;5047800;28;20209;-91
2023/08/06 03:59:33;;;;;;;1.43;0.40;;;;;17.00;95571.00;;;;5048043;28;20201;-90
2023/08/06 04:02:22;;;;;;;1.40;0.47;;;;;17.10;95571.00;;;;5040884;28;20593;-92
2023/08/06 04:05:11;;;;;;;1.50;0.50;;;;;17.20;95576.00;;;;5049405;28;20270;-90
2023/08/06 04:08:01;;;;;;;0.40;0.40;;;;;17.20;95576.00;;;;5048514;28;20629;-91
2023/08/06 04:10:53;;;;;;;0.63;0.63;;;;;17.20;95568.00;;;;5048205;28;20221;-90
2023/08/06 04:13:44;;;;;;;0.70;0.40;;;;;17.20;95566.00;;;;5036762;28;20212;-89
2023/08/06 04:16:34;;;;;;;1.77;0.33;;;;;17.20;95557.00;;;;5050881;28;20758;-89
2023/08/06 04:19:23;;;;;;;0.47;0.40;;;;;17.20;95569.00;;;;5048135;28;20212;-90
2023/08/06 04:22:12;;;;;;;0.43;0.40;;;;;17.20;95557.00;;;;5050828;28;20760;-90
2023/08/06 04:25:02;;;;;;;2.47;0.40;;;;;17.30;95551.00;;;;5051093;28;20196;-91
2023/08/06 04:27:52;;;;;;;0.40;0.40;;;;;17.40;95552.00;;;;5048909;28;20212;-91
2023/08/06 04:30:42;;;;;;;2.60;0.50;;;;;17.20;95565.00;;;;5051691;28;20634;-90
2023/08/06 04:33:31;;;;;;;0.57;0.50;;;;;17.30;95564.00;;;;5050008;28;20265;-90
2023/08/06 04:36:20;;;;;;;0.93;0.47;;;;;17.30;95565.00;;;;5045091;28;20235;-90
2023/08/06 04:39:09;;;;;;;1.03;0.53;;;;;17.10;95551.00;;;;5051977;28;20215;-90
2023/08/06 04:41:59;;;;;;;3.37;1.07;;;;;17.30;95564.00;;;;5051668;28;20224;-90
2023/08/06 04:44:49;;;;;;;0.83;0.60;;;;;17.30;95569.00;;;;5051686;28;20228;-90
2023/08/06 04:47:39;;;;;;;1.17;0.57;;;;;17.30;95570.00;;;;5047032;28;20768;-90
2023/08/06 04:50:28;;;;;;;2.00;0.60;;;;;17.40;95566.00;;;;5051200;28;20286;-89
2023/08/06 04:53:17;;;;;;;1.27;0.90;;;;;17.40;95581.00;;;;5047532;28;20220;-90
2023/08/06 04:56:07;;;;;;;2.80;0.70;;;;;17.40;95572.00;;;;5052096;28;20205;-90
2023/08/06 04:58:56;;;;;;;0.27;0.27;;;;;17.30;95581.00;;;;5050982;28;20286;-90
2023/08/06 05:01:47;;;;;;;3.63;0.50;;;;;17.40;95583.00;;;;5052481;28;20273;-90
2023/08/06 05:04:36;;;;;;;0.90;0.53;;;;;17.20;95599.00;;;;5051182;28;20278;-90
2023/08/06 05:07:25;;;;;;;2.47;0.70;;;;;17.30;95595.00;;;;5046882;28;20298;-89
2023/08/06 05:10:15;;;;;;;0.70;0.60;;;;;17.40;95617.00;;;;5044569;28;20309;-90
2023/08/06 05:13:04;;;;;;;1.67;0.50;;;;;17.40;95616.00;;;;5050853;28;20232;-89
2023/08/06 05:15:55;;;;;;;0.30;0.30;;;;;17.40;95621.00;;;;5051098;28;20215;-89
2023/08/06 05:18:45;;;;;;;0.60;0.50;;;;;17.50;95622.00;;;;5046324;28;20209;-89
2023/08/06 05:21:34;;;;;;;0.80;0.70;;;;;17.40;95618.00;;;;5043609;28;20214;-91
2023/08/06 05:24:24;;;;;;;2.20;0.80;;;;;17.20;95631.00;;;;5039280;28;21361;-91
2023/08/06 05:27:13;;;;;;;2.33;0.60;;;;;17.30;95620.00;;;;5049528;28;20228;-90
2023/08/06 05:30:03;;;;;;;0.50;0.50;;;;;17.20;95632.00;;;;5051210;28;20197;-89
2023/08/06 05:32:52;;;;;;;0.40;0.40;;;;;17.10;95630.00;;;;5049723;28;20688;-90
2023/08/06 05:35:44;;;;;;;1.33;0.50;;;;;17.10;95632.00;;;;5050846;28;20200;-89
2023/08/06 05:38:33;;;;;;;0.60;0.60;;;;;17.40;95635.00;;;;5049670;28;20193;-90
2023/08/06 05:41:22;;;;;;;0.57;0.30;;;;;17.20;95637.00;;;;5036455;28;20229;-91
2023/08/06 05:44:11;;;;;;;2.63;0.70;;;;;17.20;95639.00;;;;5050750;28;20200;-89
2023/08/06 05:47:01;;;;;;;0.50;0.50;;;;;17.20;95644.00;;;;5046422;28;20211;-91
2023/08/06 05:49:50;;;;;;;0.73;0.73;;;;;17.20;95637.00;;;;5040143;28;20205;-90
2023/08/06 05:52:40;;;;;;;2.53;0.67;;;;;17.30;95652.00;;;;5052051;28;20732;-90
2023/08/06 05:55:30;;;;;;;0.50;0.40;;;;;17.20;95637.00;;;;5065115;28;20260;-90
2023/08/06 05:58:20;;;;;;;1.00;0.50;;;;;16.80;95629.00;;;;5068584;28;20204;-90
2023/08/06 06:01:10;;;;;;;2.60;0.50;;;;;17.00;95630.00;;;;5074287;28;20204;-89
2023/08/06 06:03:59;;;;;;;0.60;0.60;;;;;17.10;95640.00;;;;5066003;28;20211;-90
2023/08/06 06:06:49;;;;;;;0.40;0.40;;;;;17.30;95645.00;;;;5075254;28;20260;-90
2023/08/06 06:09:40;;;;;;;2.17;0.70;;;;;17.40;95644.00;;;;5074946;28;20234;-90
2023/08/06 06:12:29;;;;;;;2.33;0.70;;;;;17.60;95638.00;;;;5071976;28;20291;-90
2023/08/06 06:15:18;;;;;;;0.50;0.50;;;;;17.80;95647.00;;;;5073534;28;20196;-89
2023/08/06 06:18:08;;;;;;;0.77;0.50;;;;;17.70;95648.00;;;;5073671;28;20191;-88
2023/08/06 06:20:57;;;;;;;2.73;0.40;;;;;17.80;95645.00;;;;5074161;28;20224;-89
2023/08/06 06:23:46;;;;;;;0.80;0.50;;;;;17.90;95655.00;;;;5064853;28;20843;-89
2023/08/06 06:26:36;;;;;;;3.27;0.57;;;;;18.00;95667.00;;;;5060653;28;20196;-88
2023/08/06 06:29:26;;;;;;;0.57;0.57;;;;;18.10;95662.00;;;;5073552;28;20185;-89
2023/08/06 06:32:15;;;;;;;2.57;0.40;;;;;18.20;95664.00;;;;5067926;28;20209;-89
2023/08/06 06:35:04;;;;;;;2.20;0.67;;;;;18.30;95665.00;;;;5064357;28;20217;-88
2023/08/06 06:37:54;;;;;;;0.70;0.70;;;;;18.10;95663.00;;;;5047025;28;20208;-89
2023/08/06 06:40:43;;;;;;;1.60;0.30;;;;;18.00;95655.00;;;;5046044;28;20329;-88
2023/08/06 06:43:34;;;;;;;0.53;0.30;;;;;18.40;95661.00;;;;5039903;28;20574;-89
2023/08/06 06:46:23;;;;;;;1.77;1.67;;;;;18.50;95656.00;;;;5046489;28;20254;-89
2023/08/06 06:49:12;;;;;;;1.90;0.47;;;;;18.50;95661.00;;;;5047962;28;20208;-89
2023/08/06 06:52:01;;;;;;;0.50;0.40;;;;;18.60;95656.00;;;;5036104;28;20733;-88
2023/08/06 06:54:50;;;;;;;0.40;0.40;;;;;18.60;95649.00;;;;5047869;28;20258;-88
2023/08/06 06:57:39;;;;;;;1.80;0.40;;;;;18.60;95664.00;;;;5037522;28;20770;-88
2023/08/06 07:00:30;;;;;;;2.03;0.53;;;;;18.40;95652.00;;;;5039315;28;20735;-89
2023/08/06 07:03:21;;;;;;;0.70;0.57;;;;;18.30;95652.00;;;;5048000;28;20785;-88
2023/08/06 07:06:12;;;;;;;0.63;0.63;;;;;18.20;95643.00;;;;5042235;28;20209;-89
2023/08/06 07:09:01;;;;;;;0.30;0.30;;;;;18.50;95643.00;;;;5041080;28;20204;-89
2023/08/06 07:11:50;;;;;;;2.00;0.60;;;;;18.60;95642.00;;;;5032392;28;20297;-89
2023/08/06 07:14:39;;;;;;;2.23;0.50;;;;;18.40;95642.00;;;;5035832;28;20208;-89
2023/08/06 07:17:30;;;;;;;0.43;0.43;;;;;18.50;95641.00;;;;5039335;28;20213;-90
2023/08/06 07:20:19;;;;;;;3.90;0.50;;;;;18.70;95640.00;;;;5045484;28;20231;-89
2023/08/06 07:23:08;;;;;;;1.13;0.40;;;;;18.60;95641.00;;;;5043837;28;20196;-89
2023/08/06 07:25:58;;;;;;;0.80;0.80;;;;;18.90;95640.00;;;;5043627;28;20198;-90
2023/08/06 07:28:47;;;;;;;0.80;0.80;;;;;18.80;95633.00;;;;5044508;28;20765;-89
2023/08/06 07:31:36;;;;;;;3.03;0.70;;;;;18.80;95631.00;;;;5046642;28;20230;-88
2023/08/06 07:34:27;;;;;;;0.70;0.70;;;;;18.80;95641.00;;;;5045686;28;20208;-88
2023/08/06 07:37:16;;;;;;;1.83;0.70;;;;;18.90;95621.00;;;;5039469;28;20247;-88
2023/08/06 07:40:07;;;;;;;1.47;0.97;;;;;18.70;95621.00;;;;5040253;28;20684;-89
2023/08/06 07:42:56;;;;;;;2.70;1.00;;;;;18.80;95636.00;;;;5050198;28;20207;-89
2023/08/06 07:45:48;;;;;;;1.83;1.00;;;;;18.70;95626.00;;;;5046624;28;20246;-89
2023/08/06 07:48:37;;;;;;;1.70;1.60;;;;;18.50;95625.00;;;;5045468;28;20577;-90
2023/08/06 07:51:29;;;;;;;1.60;1.50;;;;;18.70;95627.00;;;;5045155;28;20216;-89
2023/08/06 07:54:21;;;;;;;1.60;1.40;;;;;18.60;95616.00;;;;5043273;28;20261;-91
2023/08/06 07:57:11;;;;;;;3.27;1.30;;;;;18.60;95622.00;;;;5046833;28;20286;-90
2023/08/06 08:00:06;;;;;;;1.87;1.77;;;;;18.40;95614.00;;;;5041217;28;20224;-90
2023/08/06 08:02:55;;;;;;;3.83;1.10;;;;;18.80;95614.00;;;;5042060;28;20270;-90
2023/08/06 08:05:45;;;;;;;1.93;1.80;;;;;18.70;95608.00;;;;5045568;28;20212;-89
2023/08/06 08:08:38;;;;;;;1.13;0.83;;;;;18.80;95611.00;;;;5045170;28;20205;-90
2023/08/06 08:11:33;;;;;;;1.03;0.50;;;;;19.00;95623.00;;;;5045322;28;20224;-89
2023/08/06 08:14:22;;;;;;;0.63;0.53;;;;;18.80;95625.00;;;;5046382;28;20290;-90
2023/08/06 08:17:12;;;;;;;1.13;0.80;;;;;19.00;95620.00;;;;5040779;28;20775;-89
2023/08/06 08:20:01;;;;;;;1.20;0.80;;;;;19.50;95620.00;;;;5044023;28;20200;-89
2023/08/06 08:22:50;;;;;;;1.63;0.57;;;;;19.30;95615.00;;;;5043790;28;20196;-88
2023/08/06 08:25:41;;;;;;;0.60;0.60;;;;;19.60;95626.00;;;;5044953;28;20216;-88
2023/08/06 08:28:31;;;;;;;0.73;0.67;;;;;19.70;95627.00;;;;5045629;28;20204;-89
2023/08/06 08:31:20;;;;;;;1.70;0.53;;;;;19.90;95627.00;;;;5049434;28;20747;-89
2023/08/06 08:34:10;;;;;;;0.80;0.60;;;;;19.90;95628.00;;;;5044151;28;20224;-89
2023/08/06 08:36:59;;;;;;;1.47;0.70;;;;;19.70;95620.00;;;;5036629;28;20209;-90
2023/08/06 08:39:48;;;;;;;0.60;0.60;;;;;20.00;95637.00;;;;5045101;28;20200;-89
2023/08/06 08:42:39;;;;;;;0.50;0.40;;;;;20.10;95643.00;;;;5045964;28;20215;-89
2023/08/06 08:45:30;;;;;;;1.10;0.90;;;;;20.10;95642.00;;;;5040650;28;20254;-90
2023/08/06 08:48:23;;;;;;;1.17;1.00;;;;;20.10;95639.00;;;;5045287;28;20733;-88
2023/08/06 08:51:18;;;;;;;2.30;1.27;;;;;20.20;95644.00;;;;5045866;28;20593;-90
2023/08/06 08:54:13;;;;;;;1.07;0.87;;;;;20.00;95646.00;;;;5046040;28;20889;-91
2023/08/06 08:57:12;;;;;;;1.90;0.70;;;;;20.10;95653.00;;;;5046317;28;20212;-88
2023/08/06 09:00:23;;;;;;;3.20;1.07;;;;;20.30;95666.00;;;;5044605;28;20283;-89
2023/08/06 09:03:13;;;;;;;0.70;0.70;;;;;20.20;95645.00;;;;5048811;28;20208;-89
2023/08/06 09:06:10;;;;;;;1.27;0.87;;;;;20.20;95666.00;;;;5026243;28;20270;-90
2023/08/06 09:09:06;;;;;;;0.97;0.87;;;;;20.00;95656.00;;;;5023164;28;20260;-89
2023/08/06 09:11:59;;;;;;;1.37;1.00;;;;;20.10;95658.00;;;;5026944;28;20224;-89
2023/08/06 09:14:48;;;;;;;1.57;1.47;;;;;20.10;95659.00;;;;5028816;28;20233;-89
2023/08/06 09:17:39;;;;;;;1.67;0.43;;;;;20.00;95660.00;;;;5026923;28;20258;-89
2023/08/06 09:20:28;;;;;;;0.50;0.50;;;;;20.10;95671.00;;;;5029641;28;20326;-89
2023/08/06 09:23:20;;;;;;;0.40;0.40;;;;;20.00;95674.00;;;;5028881;28;20227;-89
2023/08/06 09:26:13;;;;;;;1.47;0.50;;;;;20.10;95673.00;;;;5024762;28;20276;-89
2023/08/06 09:29:07;;;;;;;0.70;0.30;;;;;20.10;95681.00;;;;5026102;28;20217;-89
2023/08/06 09:31:56;;;;;;;2.23;0.50;;;;;20.20;95688.00;;;;5026412;28;20259;-89
2023/08/06 09:34:48;;;;;;;1.80;0.73;;;;;20.30;95685.00;;;;5027883;28;20732;-89
2023/08/06 09:37:37;;;;;;;0.73;0.67;;;;;20.30;95688.00;;;;5026832;28;20635;-89
2023/08/06 09:40:29;;;;;;;0.57;0.57;;;;;20.50;95686.00;;;;5027084;28;20244;-89
2023/08/06 09:43:21;;;;;;;0.43;0.40;;;;;20.50;95685.00;;;;5026225;28;20209;-90
2023/08/06 09:46:16;;;;;;;0.70;0.70;;;;;20.40;95680.00;;;;5025212;28;20201;-89
2023/08/06 09:49:08;;;;;;;2.30;0.60;;;;;20.20;95676.00;;;;5027732;28;20205;-89
2023/08/06 09:51:59;;;;;;;1.20;0.80;;;;;20.60;95677.00;;;;5024141;28;20765;-89
2023/08/06 09:54:49;;;;;;;1.20;1.10;;;;;20.70;95687.00;;;;5027108;28;20278;-90
2023/08/06 09:57:39;;;;;;;0.57;0.57;;;;;21.10;95684.00;;;;5025361;28;20306;-91
2023/08/06 10:00:30;;;;;;;2.83;1.07;;;;;21.30;95683.00;;;;5022574;28;20247;-90
2023/08/06 10:03:20;;;;;;;1.27;1.17;;;;;21.50;95676.00;;;;5023374;28;20198;-91
2023/08/06 10:06:10;;;;;;;1.73;0.93;;;;;21.70;95687.00;;;;5023782;28;20201;-91
2023/08/06 10:09:00;;;;;;;0.70;0.60;;;;;22.00;95698.00;;;;5023589;28;20236;-91
2023/08/06 10:11:52;;;;;;;0.77;0.67;;;;;22.10;95687.00;;;;5028096;28;20225;-93
2023/08/06 10:14:44;;;;;;;0.73;0.70;;;;;22.70;95695.00;;;;5027136;28;20221;-91
2023/08/06 10:17:33;;;;;;;1.93;0.93;;;;;22.90;95681.00;;;;5025051;28;20243;-91
2023/08/06 10:20:33;;;;;;;1.17;1.00;;;;;23.40;95682.00;;;;5027549;28;20240;-92
2023/08/06 10:23:35;;;;;;;0.73;0.50;;;;;23.60;95688.00;;;;5021195;28;20291;-91
2023/08/06 10:26:28;;;;;;;0.63;0.63;;;;;24.30;95680.00;;;;5020921;28;20963;-92
2023/08/06 10:29:37;;;;;;;0.83;0.70;;;;;24.70;95681.00;;;;5025217;28;20666;-91
2023/08/06 10:32:47;;;;;;;0.80;0.60;;;;;25.10;95692.00;;;;5026368;28;20271;-92
2023/08/06 10:35:38;;;;;;;0.57;0.50;;;;;24.80;95678.00;;;;5023293;28;20310;-90
2023/08/06 10:38:31;;;;;;;0.70;0.60;;;;;24.30;95685.00;;;;5026306;28;20228;-90
2023/08/06 10:41:28;;;;;;;0.70;0.50;;;;;24.00;95681.00;;;;5027516;28;20350;-91
2023/08/06 10:44:18;;;;;;;0.50;0.50;;;;;24.60;95698.00;;;;5022954;28;20731;-92
2023/08/06 10:47:27;;;;;;;4.43;0.53;;;;;24.60;95688.00;;;;5011291;28;20213;-90
2023/08/06 10:50:17;;;;;;;0.77;0.77;;;;;24.50;95704.00;;;;5016927;28;20225;-90
2023/08/06 10:53:08;;;;;;;5.70;0.73;;;;;25.10;95683.00;;;;5021797;28;20209;-90
2023/08/06 10:55:57;;;;;;;0.90;0.60;;;;;25.00;95680.00;;;;5022255;28;20280;-91
2023/08/06 10:58:47;;;;;;;1.13;0.50;;;;;24.90;95694.00;;;;5025389;28;20686;-90
2023/08/06 11:01:38;;;;;;;0.70;0.60;;;;;24.70;95671.00;;;;5027061;28;20286;-91
2023/08/06 11:04:32;;;;;;;1.20;0.67;;;;;26.50;95718.00;;;;5033203;28;20205;-88
2023/08/06 11:07:23;;;;;;;2.23;0.77;;;;;27.00;95685.00;;;;5052215;28;20213;-90
2023/08/06 11:10:13;;;;;;;1.13;0.80;;;;;26.90;95702.00;;;;5045419;28;20217;-90
2023/08/06 11:13:03;;;;;;;0.87;0.67;;;;;25.50;95697.00;;;;5046672;28;20225;-87
2023/08/06 11:15:54;;;;;;;2.00;0.70;;;;;25.20;95695.00;;;;5044410;28;20229;-88
2023/08/06 11:18:45;;;;;;;1.07;0.97;;;;;25.00;95699.00;;;;5038913;28;20266;-89
2023/08/06 11:21:34;;;;;;;0.53;0.43;;;;;24.60;95701.00;;;;5045872;28;20271;-88
2023/08/06 11:24:25;;;;;;;0.97;0.70;;;;;26.20;95669.00;;;;5046685;28;20204;-88
2023/08/06 11:27:14;;;;;;;0.80;0.50;;;;;27.00;95698.00;;;;5042913;28;20214;-87
2023/08/06 11:30:04;;;;;;;3.03;0.60;;;;;26.30;95690.00;;;;5046191;28;20201;-88
2023/08/06 11:32:53;;;;;;;0.60;0.53;;;;;26.70;95650.00;;;;5045051;28;20263;-89
2023/08/06 11:35:44;;;;;;;1.83;0.40;;;;;25.70;95649.00;;;;5042788;28;20230;-88
2023/08/06 11:38:34;;;;;;;1.23;0.60;;;;;26.50;95694.00;;;;5046164;28;20194;-88
2023/08/06 11:41:23;;;;;;;0.50;0.50;;;;;27.00;95644.00;;;;5046053;28;20231;-88
2023/08/06 11:44:13;;;;;;;0.53;0.40;;;;;26.70;95688.00;;;;5044572;28;20258;-87
2023/08/06 11:47:05;;;;;;;1.10;0.50;;;;;26.50;95698.00;;;;5040051;28;20209;-87
2023/08/06 11:49:54;;;;;;;0.50;0.50;;;;;26.10;95708.00;;;;5044877;28;20199;-87
2023/08/06 11:52:45;;;;;;;1.57;0.40;;;;;25.90;95705.00;;;;5052101;28;20248;-86
2023/08/06 11:55:34;;;;;;;0.83;0.50;;;;;26.20;95715.00;;;;5051898;28;20224;-86
2023/08/06 11:58:23;;;;;;;0.57;0.40;;;;;25.80;95715.00;;;;5054604;28;20202;-86
2023/08/06 12:01:12;;;;;;;0.60;0.57;;;;;25.00;95715.00;;;;5054647;28;20249;-85
2023/08/06 12:04:01;;;;;;;0.40;0.27;;;;;24.90;95728.00;;;;5047005;28;20573;-85
2023/08/06 12:06:50;;;;;;;0.80;0.43;;;;;25.40;95719.00;;;;5047211;28;20212;-85
2023/08/06 12:09:41;;;;;;;1.27;0.40;;;;;25.30;95721.00;;;;5046383;28;20225;-86
2023/08/06 12:12:32;;;;;;;1.03;0.93;;;;;24.60;95717.00;;;;5043806;28;20217;-86
2023/08/06 12:15:23;;;;;;;1.00;0.40;;;;;24.20;95724.00;;;;5046799;28;20591;-86
2023/08/06 12:18:12;;;;;;;1.53;0.47;;;;;24.50;95711.00;;;;5045134;28;20291;-85
2023/08/06 12:21:01;;;;;;;1.97;0.50;;;;;25.50;95721.00;;;;5039412;28;20301;-85
2023/08/06 12:23:50;;;;;;;0.93;0.50;;;;;26.80;95686.00;;;;5042571;28;20247;-86
2023/08/06 12:26:41;;;;;;;0.70;0.50;;;;;27.00;95721.00;;;;5055714;28;20200;-86
2023/08/06 12:29:31;;;;;;;1.07;0.73;;;;;26.40;95711.00;;;;5040853;28;20196;-86
2023/08/06 12:32:20;;;;;;;0.50;0.50;;;;;26.10;95727.00;;;;5045537;28;20224;-86
2023/08/06 12:35:09;;;;;;;0.30;0.30;;;;;27.10;95675.00;;;;5048722;28;20229;-86
2023/08/06 12:37:58;;;;;;;0.97;0.50;;;;;26.80;95707.00;;;;5050151;28;20208;-87
2023/08/06 12:40:48;;;;;;;1.90;0.47;;;;;27.40;95699.00;;;;5053151;28;20855;-86
2023/08/06 12:43:38;;;;;;;0.80;0.43;;;;;27.70;95735.00;;;;5050607;28;20723;-86
2023/08/06 12:46:27;;;;;;;0.70;0.60;;;;;26.90;95703.00;;;;5053956;28;20196;-86
2023/08/06 12:49:17;;;;;;;0.77;0.27;;;;;27.40;95682.00;;;;5049672;28;20213;-87
2023/08/06 12:52:07;;;;;;;1.07;0.60;;;;;28.10;95674.00;;;;5050723;28;20214;-88
2023/08/06 12:54:56;;;;;;;0.20;0.10;;;;;25.40;95674.00;;;;5045237;28;20389;-88
2023/08/06 12:57:45;;;;;;;0.73;0.23;;;;;25.10;95662.00;;;;5041961;28;20216;-87
2023/08/06 13:00:41;;;;;;;0.47;0.30;;;;;26.30;95673.00;;;;5054246;28;20269;-87
2023/08/06 13:03:30;;;;;;;0.23;0.20;;;;;26.00;95672.00;;;;5050571;28;20194;-88
2023/08/06 13:06:21;;;;;;;0.53;0.10;;;;;26.20;95663.00;;;;5054169;28;20269;-90
2023/08/06 13:09:10;;;;;;;0.40;0.30;;;;;25.40;95727.00;;;;5051986;28;20206;-88
2023/08/06 13:12:04;;;;;;;0.47;0.30;;;;;26.50;95678.00;;;;5043222;28;20222;-90
2023/08/06 13:14:57;;;;;;;0.30;0.10;;;;;27.40;95688.00;;;;5046092;28;20199;-88
2023/08/06 13:17:47;;;;;;;0.20;0.20;;;;;29.70;95693.00;;;;5046615;28;20204;-89
2023/08/06 13:20:38;;;;;;;0.20;0.13;;;;;29.10;95680.00;;;;5049733;28;20244;-88
2023/08/06 13:23:28;;;;;;;1.80;0.33;;;;;28.40;95762.00;;;;5051830;28;20201;-87
2023/08/06 13:26:17;;;;;;;1.40;0.37;;;;;29.80;95744.00;;;;5050705;28;20239;-89
2023/08/06 13:29:07;;;;;;;1.13;0.50;;;;;31.50;95721.00;;;;5050021;28;20215;-89
2023/08/06 13:31:56;;;;;;;0.60;0.40;;;;;27.50;95756.00;;;;5051135;28;20776;-89
2023/08/06 13:34:46;;;;;;;0.97;0.40;;;;;28.40;95757.00;;;;5030600;28;20633;-90
2023/08/06 13:37:35;;;;;;;0.30;0.20;;;;;28.20;95757.00;;;;5044080;28;20200;-89
2023/08/06 13:40:25;;;;;;;2.00;0.50;;;;;28.40;95750.00;;;;5047794;28;20225;-89
2023/08/06 13:43:19;;;;;;;1.53;0.20;;;;;28.80;95746.00;;;;5050823;28;20211;-90
2023/08/06 13:46:08;;;;;;;0.37;0.23;;;;;27.70;95775.00;;;;5049072;28;20219;-90
2023/08/06 13:48:58;;;;;;;0.67;0.50;;;;;27.90;95746.00;;;;5047322;28;20661;-88
2023/08/06 13:51:48;;;;;;;1.60;0.40;;;;;27.50;95764.00;;;;5050184;28;20390;-87
2023/08/06 13:54:37;;;;;;;1.30;0.57;;;;;27.70;95760.00;;;;5043045;28;20217;-89
2023/08/06 13:57:26;;;;;;;0.60;0.30;;;;;27.90;95766.00;;;;5049531;28;20202;-88
2023/08/06 14:00:15;;;;;;;0.30;0.20;;;;;27.60;95768.00;;;;5049423;28;20228;-87
2023/08/06 14:03:04;;;;;;;1.17;0.30;;;;;27.00;95768.00;;;;5046286;28;20206;-89
2023/08/06 14:05:55;;;;;;;0.43;0.20;;;;;26.10;95772.00;;;;5044368;28;20233;-89
2023/08/06 14:08:45;;;;;;;1.27;0.57;;;;;26.30;95777.00;;;;5048621;28;20200;-88
2023/08/06 14:11:35;;;;;;;0.63;0.30;;;;;25.80;95696.00;;;;5043294;28;20264;-89
2023/08/06 14:14:27;;;;;;;1.63;0.40;;;;;28.30;95753.00;;;;5046048;28;20214;-89